sensor_id;sensor_type;location;lat;lon;timestamp;P1;durP1;ratioP1;P2;durP2;ratioP2
35444;SDS011;21562;49.476;6.086;2023-03-31T00:00:55;16.25;;;2.13;;
35444;SDS011;21562;49.476;6.086;2023-03-31T00:03:22;14.85;;;2.00;;
35444;SDS011;21562;49.476;6.086;2023-03-31T00:05:48;19.58;;;2.15;;
35444;SDS011;21562;49.476;6.086;2023-03-31T00:08:25;13.40;;;2.03;;
35444;SDS011;21562;49.476;6.086;2023-03-31T00:10:56;17.20;;;2.92;;
35444;SDS011;21562;49.476;6.086;2023-03-31T00:13:23;22.73;;;2.22;;
35444;SDS011;21562;49.476;6.086;2023-03-31T00:15:54;15.73;;;2.10;;
35444;SDS011;21562;49.476;6.086;2023-03-31T00:18:25;12.80;;;2.03;;
35444;SDS011;21562;49.476;6.086;2023-03-31T00:20:51;16.45;;;1.95;;
35444;SDS011;21562;49.476;6.086;2023-03-31T00:23:17;11.68;;;2.10;;
35444;SDS011;21562;49.476;6.086;2023-03-31T00:25:52;13.13;;;1.90;;
35444;SDS011;21562;49.476;6.086;2023-03-31T00:28:18;14.55;;;1.73;;
35444;SDS011;21562;49.476;6.086;2023-03-31T00:30:44;17.55;;;2.40;;
35444;SDS011;21562;49.476;6.086;2023-03-31T00:33:11;21.20;;;2.90;;
35444;SDS011;21562;49.476;6.086;2023-03-31T00:35:37;20.20;;;2.33;;
35444;SDS011;21562;49.476;6.086;2023-03-31T00:38:03;15.55;;;2.05;;
35444;SDS011;21562;49.476;6.086;2023-03-31T00:40:30;12.43;;;1.90;;
35444;SDS011;21562;49.476;6.086;2023-03-31T00:42:56;14.30;;;2.22;;
35444;SDS011;21562;49.476;6.086;2023-03-31T00:45:23;12.55;;;1.60;;
35444;SDS011;21562;49.476;6.086;2023-03-31T00:48:14;18.45;;;2.88;;
35444;SDS011;21562;49.476;6.086;2023-03-31T00:50:43;10.50;;;1.90;;
35444;SDS011;21562;49.476;6.086;2023-03-31T00:53:17;14.75;;;1.95;;
35444;SDS011;21562;49.476;6.086;2023-03-31T00:55:52;12.90;;;2.03;;
35444;SDS011;21562;49.476;6.086;2023-03-31T00:58:21;11.85;;;2.67;;
35444;SDS011;21562;49.476;6.086;2023-03-31T01:00:52;13.00;;;2.13;;
35444;SDS011;21562;49.476;6.086;2023-03-31T01:03:21;9.27;;;1.88;;
35444;SDS011;21562;49.476;6.086;2023-03-31T01:05:54;15.10;;;2.13;;
35444;SDS011;21562;49.476;6.086;2023-03-31T01:08:25;11.07;;;1.92;;
35444;SDS011;21562;49.476;6.086;2023-03-31T01:10:52;15.90;;;2.25;;
35444;SDS011;21562;49.476;6.086;2023-03-31T01:13:22;10.90;;;1.50;;
35444;SDS011;21562;49.476;6.086;2023-03-31T01:15:48;6.80;;;1.52;;
35444;SDS011;21562;49.476;6.086;2023-03-31T01:18:14;17.60;;;2.70;;
35444;SDS011;21562;49.476;6.086;2023-03-31T01:29:22;7.53;;;1.60;;
35444;SDS011;21562;49.476;6.086;2023-03-31T01:43:33;13.35;;;1.73;;
35444;SDS011;21562;49.476;6.086;2023-03-31T01:46:29;16.27;;;2.28;;
35444;SDS011;21562;49.476;6.086;2023-03-31T01:49:03;12.02;;;1.85;;
35444;SDS011;21562;49.476;6.086;2023-03-31T01:54:33;9.90;;;1.98;;
35444;SDS011;21562;49.476;6.086;2023-03-31T01:57:26;5.85;;;1.55;;
35444;SDS011;21562;49.476;6.086;2023-03-31T02:00:13;6.03;;;1.40;;
35444;SDS011;21562;49.476;6.086;2023-03-31T02:02:48;12.65;;;1.95;;
35444;SDS011;21562;49.476;6.086;2023-03-31T02:05:25;8.10;;;1.90;;
35444;SDS011;21562;49.476;6.086;2023-03-31T02:07:57;8.80;;;1.17;;
35444;SDS011;21562;49.476;6.086;2023-03-31T02:10:30;7.15;;;1.20;;
35444;SDS011;21562;49.476;6.086;2023-03-31T02:12:58;9.98;;;1.42;;
35444;SDS011;21562;49.476;6.086;2023-03-31T02:15:28;11.30;;;1.20;;
35444;SDS011;21562;49.476;6.086;2023-03-31T02:17:57;9.10;;;1.50;;
35444;SDS011;21562;49.476;6.086;2023-03-31T02:20:27;10.95;;;1.40;;
35444;SDS011;21562;49.476;6.086;2023-03-31T02:22:56;7.40;;;1.20;;
35444;SDS011;21562;49.476;6.086;2023-03-31T02:25:24;10.60;;;1.63;;
35444;SDS011;21562;49.476;6.086;2023-03-31T02:27:57;6.32;;;1.13;;
35444;SDS011;21562;49.476;6.086;2023-03-31T02:30:27;13.07;;;1.63;;
35444;SDS011;21562;49.476;6.086;2023-03-31T02:33:00;11.65;;;1.73;;
35444;SDS011;21562;49.476;6.086;2023-03-31T02:35:29;7.93;;;1.40;;
35444;SDS011;21562;49.476;6.086;2023-03-31T02:37:55;11.63;;;1.73;;
35444;SDS011;21562;49.476;6.086;2023-03-31T02:40:22;12.45;;;1.50;;
35444;SDS011;21562;49.476;6.086;2023-03-31T02:42:51;7.45;;;1.33;;
35444;SDS011;21562;49.476;6.086;2023-03-31T02:48:06;10.43;;;1.52;;
35444;SDS011;21562;49.476;6.086;2023-03-31T02:50:40;9.32;;;1.52;;
35444;SDS011;21562;49.476;6.086;2023-03-31T03:04:10;8.63;;;1.45;;
35444;SDS011;21562;49.476;6.086;2023-03-31T03:12:21;9.40;;;1.42;;
35444;SDS011;21562;49.476;6.086;2023-03-31T03:15:04;9.25;;;1.20;;
35444;SDS011;21562;49.476;6.086;2023-03-31T03:17:33;9.75;;;2.10;;
35444;SDS011;21562;49.476;6.086;2023-03-31T03:20:05;5.30;;;1.20;;
35444;SDS011;21562;49.476;6.086;2023-03-31T03:22:33;12.57;;;2.00;;
35444;SDS011;21562;49.476;6.086;2023-03-31T03:24:59;16.48;;;1.95;;
35444;SDS011;21562;49.476;6.086;2023-03-31T03:27:25;9.75;;;1.50;;
35444;SDS011;21562;49.476;6.086;2023-03-31T03:29:52;8.75;;;1.73;;
35444;SDS011;21562;49.476;6.086;2023-03-31T03:32:18;13.57;;;1.83;;
35444;SDS011;21562;49.476;6.086;2023-03-31T03:34:43;11.40;;;2.03;;
35444;SDS011;21562;49.476;6.086;2023-03-31T03:37:09;8.80;;;1.77;;
35444;SDS011;21562;49.476;6.086;2023-03-31T03:39:35;10.82;;;1.60;;
35444;SDS011;21562;49.476;6.086;2023-03-31T03:42:01;11.07;;;2.03;;
35444;SDS011;21562;49.476;6.086;2023-03-31T03:44:27;11.15;;;1.92;;
35444;SDS011;21562;49.476;6.086;2023-03-31T03:46:53;15.73;;;2.55;;
35444;SDS011;21562;49.476;6.086;2023-03-31T03:49:19;10.13;;;2.15;;
35444;SDS011;21562;49.476;6.086;2023-03-31T03:51:44;9.30;;;1.83;;
35444;SDS011;21562;49.476;6.086;2023-03-31T03:54:10;12.18;;;2.17;;
35444;SDS011;21562;49.476;6.086;2023-03-31T03:56:36;13.43;;;2.58;;
35444;SDS011;21562;49.476;6.086;2023-03-31T03:59:02;14.40;;;2.47;;
35444;SDS011;21562;49.476;6.086;2023-03-31T04:01:27;11.98;;;2.47;;
35444;SDS011;21562;49.476;6.086;2023-03-31T04:03:53;12.30;;;2.80;;
35444;SDS011;21562;49.476;6.086;2023-03-31T04:06:19;12.77;;;2.30;;
35444;SDS011;21562;49.476;6.086;2023-03-31T04:08:44;13.35;;;2.80;;
35444;SDS011;21562;49.476;6.086;2023-03-31T04:11:11;14.15;;;2.22;;
35444;SDS011;21562;49.476;6.086;2023-03-31T04:13:39;14.88;;;2.42;;
35444;SDS011;21562;49.476;6.086;2023-03-31T04:16:05;9.88;;;2.33;;
35444;SDS011;21562;49.476;6.086;2023-03-31T04:18:31;11.38;;;2.20;;
35444;SDS011;21562;49.476;6.086;2023-03-31T04:20:56;13.80;;;2.70;;
35444;SDS011;21562;49.476;6.086;2023-03-31T04:23:35;12.35;;;2.92;;
35444;SDS011;21562;49.476;6.086;2023-03-31T04:26:10;9.73;;;2.30;;
35444;SDS011;21562;49.476;6.086;2023-03-31T04:28:37;7.68;;;2.10;;
35444;SDS011;21562;49.476;6.086;2023-03-31T04:31:08;9.80;;;2.42;;
35444;SDS011;21562;49.476;6.086;2023-03-31T04:33:34;10.38;;;2.40;;
35444;SDS011;21562;49.476;6.086;2023-03-31T04:36:03;11.95;;;2.45;;
35444;SDS011;21562;49.476;6.086;2023-03-31T04:38:41;13.15;;;3.03;;
35444;SDS011;21562;49.476;6.086;2023-03-31T04:41:10;9.80;;;2.95;;
35444;SDS011;21562;49.476;6.086;2023-03-31T04:43:37;8.88;;;2.90;;
35444;SDS011;21562;49.476;6.086;2023-03-31T04:46:02;10.98;;;3.22;;
35444;SDS011;21562;49.476;6.086;2023-03-31T04:48:28;7.20;;;2.75;;
35444;SDS011;21562;49.476;6.086;2023-03-31T04:50:54;9.93;;;3.30;;
35444;SDS011;21562;49.476;6.086;2023-03-31T04:53:19;10.80;;;2.47;;
35444;SDS011;21562;49.476;6.086;2023-03-31T04:55:45;4.97;;;1.67;;
35444;SDS011;21562;49.476;6.086;2023-03-31T04:58:11;5.45;;;2.10;;
35444;SDS011;21562;49.476;6.086;2023-03-31T05:00:36;6.18;;;2.17;;
35444;SDS011;21562;49.476;6.086;2023-03-31T05:03:02;4.45;;;1.90;;
35444;SDS011;21562;49.476;6.086;2023-03-31T05:05:27;4.63;;;1.55;;
35444;SDS011;21562;49.476;6.086;2023-03-31T05:07:53;4.93;;;2.05;;
35444;SDS011;21562;49.476;6.086;2023-03-31T05:10:19;6.00;;;1.70;;
35444;SDS011;21562;49.476;6.086;2023-03-31T05:12:44;6.13;;;2.17;;
35444;SDS011;21562;49.476;6.086;2023-03-31T05:15:10;6.03;;;1.80;;
35444;SDS011;21562;49.476;6.086;2023-03-31T05:17:36;6.35;;;2.15;;
35444;SDS011;21562;49.476;6.086;2023-03-31T05:20:02;4.80;;;1.70;;
35444;SDS011;21562;49.476;6.086;2023-03-31T05:22:35;7.00;;;1.73;;
35444;SDS011;21562;49.476;6.086;2023-03-31T05:25:02;3.33;;;1.20;;
35444;SDS011;21562;49.476;6.086;2023-03-31T05:27:30;7.55;;;1.13;;
35444;SDS011;21562;49.476;6.086;2023-03-31T05:29:56;12.38;;;0.88;;
35444;SDS011;21562;49.476;6.086;2023-03-31T05:32:22;6.10;;;1.00;;
35444;SDS011;21562;49.476;6.086;2023-03-31T05:34:48;5.03;;;1.10;;
35444;SDS011;21562;49.476;6.086;2023-03-31T05:37:16;5.47;;;1.35;;
35444;SDS011;21562;49.476;6.086;2023-03-31T05:39:45;1.40;;;0.90;;
35444;SDS011;21562;49.476;6.086;2023-03-31T05:42:10;4.30;;;1.98;;
35444;SDS011;21562;49.476;6.086;2023-03-31T05:44:36;10.15;;;3.15;;
35444;SDS011;21562;49.476;6.086;2023-03-31T05:47:02;8.93;;;2.47;;
35444;SDS011;21562;49.476;6.086;2023-03-31T05:49:28;13.98;;;3.42;;
35444;SDS011;21562;49.476;6.086;2023-03-31T05:51:53;17.08;;;4.15;;
35444;SDS011;21562;49.476;6.086;2023-03-31T05:54:20;15.45;;;3.13;;
35444;SDS011;21562;49.476;6.086;2023-03-31T05:56:46;16.35;;;4.22;;
35444;SDS011;21562;49.476;6.086;2023-03-31T05:59:12;17.67;;;3.80;;
35444;SDS011;21562;49.476;6.086;2023-03-31T06:01:38;14.48;;;3.30;;
35444;SDS011;21562;49.476;6.086;2023-03-31T06:04:04;20.40;;;4.82;;
35444;SDS011;21562;49.476;6.086;2023-03-31T06:06:29;21.95;;;4.30;;
35444;SDS011;21562;49.476;6.086;2023-03-31T06:08:57;17.00;;;4.00;;
35444;SDS011;21562;49.476;6.086;2023-03-31T06:11:22;16.92;;;3.63;;
35444;SDS011;21562;49.476;6.086;2023-03-31T06:13:48;15.02;;;4.13;;
35444;SDS011;21562;49.476;6.086;2023-03-31T06:16:14;20.13;;;4.88;;
35444;SDS011;21562;49.476;6.086;2023-03-31T06:18:41;32.38;;;4.95;;
35444;SDS011;21562;49.476;6.086;2023-03-31T06:21:07;20.48;;;5.00;;
35444;SDS011;21562;49.476;6.086;2023-03-31T06:23:40;21.93;;;5.30;;
35444;SDS011;21562;49.476;6.086;2023-03-31T06:26:10;22.05;;;5.07;;
35444;SDS011;21562;49.476;6.086;2023-03-31T06:28:40;19.70;;;4.05;;
35444;SDS011;21562;49.476;6.086;2023-03-31T06:31:10;25.85;;;4.30;;
35444;SDS011;21562;49.476;6.086;2023-03-31T06:33:37;21.92;;;4.50;;
35444;SDS011;21562;49.476;6.086;2023-03-31T06:36:05;19.25;;;4.43;;
35444;SDS011;21562;49.476;6.086;2023-03-31T06:38:35;28.40;;;5.38;;
35444;SDS011;21562;49.476;6.086;2023-03-31T06:41:02;23.25;;;4.13;;
35444;SDS011;21562;49.476;6.086;2023-03-31T06:43:28;22.60;;;4.95;;
35444;SDS011;21562;49.476;6.086;2023-03-31T06:45:55;23.85;;;4.95;;
35444;SDS011;21562;49.476;6.086;2023-03-31T06:48:24;25.13;;;3.80;;
35444;SDS011;21562;49.476;6.086;2023-03-31T06:50:51;21.58;;;5.00;;
35444;SDS011;21562;49.476;6.086;2023-03-31T06:53:17;20.15;;;3.85;;
35444;SDS011;21562;49.476;6.086;2023-03-31T06:55:43;35.28;;;5.75;;
35444;SDS011;21562;49.476;6.086;2023-03-31T06:58:08;30.08;;;5.40;;
35444;SDS011;21562;49.476;6.086;2023-03-31T07:00:35;24.83;;;4.40;;
35444;SDS011;21562;49.476;6.086;2023-03-31T07:03:02;24.70;;;4.47;;
35444;SDS011;21562;49.476;6.086;2023-03-31T07:05:28;26.10;;;4.13;;
35444;SDS011;21562;49.476;6.086;2023-03-31T07:07:55;25.75;;;4.65;;
35444;SDS011;21562;49.476;6.086;2023-03-31T07:10:22;25.27;;;4.45;;
35444;SDS011;21562;49.476;6.086;2023-03-31T07:12:49;25.77;;;3.92;;
35444;SDS011;21562;49.476;6.086;2023-03-31T07:15:15;22.05;;;3.53;;
35444;SDS011;21562;49.476;6.086;2023-03-31T07:17:41;26.58;;;4.05;;
35444;SDS011;21562;49.476;6.086;2023-03-31T07:20:14;23.75;;;5.05;;
35444;SDS011;21562;49.476;6.086;2023-03-31T07:22:41;18.55;;;3.00;;
35444;SDS011;21562;49.476;6.086;2023-03-31T07:25:08;20.30;;;3.92;;
35444;SDS011;21562;49.476;6.086;2023-03-31T07:27:34;24.48;;;3.70;;
35444;SDS011;21562;49.476;6.086;2023-03-31T07:30:00;26.90;;;4.85;;
35444;SDS011;21562;49.476;6.086;2023-03-31T07:32:26;25.42;;;5.28;;
35444;SDS011;21562;49.476;6.086;2023-03-31T07:34:52;25.65;;;4.05;;
35444;SDS011;21562;49.476;6.086;2023-03-31T07:37:17;27.98;;;3.78;;
35444;SDS011;21562;49.476;6.086;2023-03-31T07:39:43;21.15;;;3.78;;
35444;SDS011;21562;49.476;6.086;2023-03-31T07:42:09;28.92;;;5.03;;
35444;SDS011;21562;49.476;6.086;2023-03-31T07:44:34;26.80;;;4.15;;
35444;SDS011;21562;49.476;6.086;2023-03-31T07:47:00;23.80;;;5.03;;
35444;SDS011;21562;49.476;6.086;2023-03-31T07:49:30;19.80;;;4.15;;
35444;SDS011;21562;49.476;6.086;2023-03-31T07:51:56;24.50;;;4.82;;
35444;SDS011;21562;49.476;6.086;2023-03-31T07:54:22;29.50;;;4.10;;
35444;SDS011;21562;49.476;6.086;2023-03-31T07:56:48;22.15;;;3.72;;
35444;SDS011;21562;49.476;6.086;2023-03-31T07:59:13;31.17;;;3.70;;
35444;SDS011;21562;49.476;6.086;2023-03-31T08:01:39;28.98;;;4.28;;
35444;SDS011;21562;49.476;6.086;2023-03-31T08:04:05;33.55;;;4.50;;
35444;SDS011;21562;49.476;6.086;2023-03-31T08:06:30;31.30;;;4.13;;
35444;SDS011;21562;49.476;6.086;2023-03-31T08:08:56;29.98;;;3.92;;
35444;SDS011;21562;49.476;6.086;2023-03-31T08:11:23;24.85;;;3.53;;
35444;SDS011;21562;49.476;6.086;2023-03-31T08:13:50;24.65;;;3.25;;
35444;SDS011;21562;49.476;6.086;2023-03-31T08:16:16;33.95;;;5.78;;
35444;SDS011;21562;49.476;6.086;2023-03-31T08:18:41;26.02;;;4.13;;
35444;SDS011;21562;49.476;6.086;2023-03-31T08:21:07;23.25;;;4.13;;
35444;SDS011;21562;49.476;6.086;2023-03-31T08:23:36;21.88;;;3.35;;
35444;SDS011;21562;49.476;6.086;2023-03-31T08:26:12;21.92;;;4.03;;
35444;SDS011;21562;49.476;6.086;2023-03-31T08:28:41;25.38;;;3.78;;
35444;SDS011;21562;49.476;6.086;2023-03-31T08:31:07;25.05;;;3.83;;
35444;SDS011;21562;49.476;6.086;2023-03-31T08:33:34;24.33;;;3.08;;
35444;SDS011;21562;49.476;6.086;2023-03-31T08:36:04;24.50;;;3.55;;
35444;SDS011;21562;49.476;6.086;2023-03-31T08:38:33;22.88;;;3.33;;
35444;SDS011;21562;49.476;6.086;2023-03-31T08:41:02;29.25;;;3.35;;
35444;SDS011;21562;49.476;6.086;2023-03-31T08:43:31;23.05;;;3.53;;
35444;SDS011;21562;49.476;6.086;2023-03-31T08:46:01;26.17;;;3.60;;
35444;SDS011;21562;49.476;6.086;2023-03-31T08:48:31;20.42;;;3.42;;
35444;SDS011;21562;49.476;6.086;2023-03-31T08:51:02;20.23;;;3.70;;
35444;SDS011;21562;49.476;6.086;2023-03-31T08:53:36;22.63;;;3.63;;
35444;SDS011;21562;49.476;6.086;2023-03-31T08:56:06;27.55;;;3.92;;
35444;SDS011;21562;49.476;6.086;2023-03-31T08:58:39;33.00;;;4.25;;
35444;SDS011;21562;49.476;6.086;2023-03-31T09:06:57;19.70;;;2.80;;
35444;SDS011;21562;49.476;6.086;2023-03-31T09:16:19;21.80;;;3.95;;
35444;SDS011;21562;49.476;6.086;2023-03-31T09:18:54;25.20;;;4.00;;
35444;SDS011;21562;49.476;6.086;2023-03-31T09:21:26;25.45;;;4.13;;
35444;SDS011;21562;49.476;6.086;2023-03-31T09:32:09;24.23;;;3.65;;
35444;SDS011;21562;49.476;6.086;2023-03-31T09:34:39;36.47;;;5.40;;
35444;SDS011;21562;49.476;6.086;2023-03-31T09:37:05;32.35;;;4.53;;
35444;SDS011;21562;49.476;6.086;2023-03-31T09:39:33;23.02;;;3.78;;
35444;SDS011;21562;49.476;6.086;2023-03-31T09:41:58;23.58;;;3.85;;
35444;SDS011;21562;49.476;6.086;2023-03-31T09:44:26;24.38;;;4.32;;
35444;SDS011;21562;49.476;6.086;2023-03-31T09:46:57;26.50;;;3.40;;
35444;SDS011;21562;49.476;6.086;2023-03-31T09:49:26;28.65;;;3.83;;
35444;SDS011;21562;49.476;6.086;2023-03-31T09:51:59;26.52;;;3.67;;
35444;SDS011;21562;49.476;6.086;2023-03-31T09:54:33;29.88;;;3.85;;
35444;SDS011;21562;49.476;6.086;2023-03-31T09:57:11;15.45;;;3.13;;
35444;SDS011;21562;49.476;6.086;2023-03-31T09:59:39;31.38;;;4.10;;
35444;SDS011;21562;49.476;6.086;2023-03-31T10:04:53;18.92;;;3.65;;
35444;SDS011;21562;49.476;6.086;2023-03-31T10:07:22;32.20;;;5.82;;
35444;SDS011;21562;49.476;6.086;2023-03-31T10:09:49;26.20;;;4.53;;
35444;SDS011;21562;49.476;6.086;2023-03-31T10:12:18;20.10;;;2.78;;
35444;SDS011;21562;49.476;6.086;2023-03-31T10:14:49;26.30;;;3.20;;
35444;SDS011;21562;49.476;6.086;2023-03-31T10:17:20;16.98;;;2.55;;
35444;SDS011;21562;49.476;6.086;2023-03-31T10:19:53;23.63;;;3.88;;
35444;SDS011;21562;49.476;6.086;2023-03-31T10:22:30;28.02;;;2.80;;
35444;SDS011;21562;49.476;6.086;2023-03-31T10:25:06;17.88;;;2.65;;
35444;SDS011;21562;49.476;6.086;2023-03-31T10:27:35;11.35;;;2.00;;
35444;SDS011;21562;49.476;6.086;2023-03-31T10:30:07;12.48;;;1.73;;
35444;SDS011;21562;49.476;6.086;2023-03-31T10:32:41;21.25;;;2.60;;
35444;SDS011;21562;49.476;6.086;2023-03-31T10:38:04;18.27;;;1.95;;
35444;SDS011;21562;49.476;6.086;2023-03-31T10:40:34;12.18;;;1.75;;
35444;SDS011;21562;49.476;6.086;2023-03-31T10:45:35;13.02;;;1.92;;
35444;SDS011;21562;49.476;6.086;2023-03-31T10:48:08;20.02;;;1.98;;
35444;SDS011;21562;49.476;6.086;2023-03-31T10:50:59;16.42;;;2.03;;
35444;SDS011;21562;49.476;6.086;2023-03-31T10:53:28;17.88;;;3.03;;
35444;SDS011;21562;49.476;6.086;2023-03-31T10:58:32;11.55;;;1.50;;
35444;SDS011;21562;49.476;6.086;2023-03-31T11:04:20;14.85;;;1.88;;
35444;SDS011;21562;49.476;6.086;2023-03-31T11:13:35;10.27;;;1.23;;
35444;SDS011;21562;49.476;6.086;2023-03-31T11:21:26;11.88;;;1.80;;
35444;SDS011;21562;49.476;6.086;2023-03-31T11:24:21;8.05;;;1.67;;
35444;SDS011;21562;49.476;6.086;2023-03-31T11:43:25;13.05;;;1.45;;
35444;SDS011;21562;49.476;6.086;2023-03-31T11:46:10;14.55;;;2.17;;
35444;SDS011;21562;49.476;6.086;2023-03-31T11:49:00;19.88;;;2.00;;
35444;SDS011;21562;49.476;6.086;2023-03-31T11:51:56;14.95;;;2.75;;
35444;SDS011;21562;49.476;6.086;2023-03-31T11:54:34;14.57;;;1.85;;
35444;SDS011;21562;49.476;6.086;2023-03-31T11:57:12;21.63;;;2.60;;
35444;SDS011;21562;49.476;6.086;2023-03-31T11:59:52;14.55;;;2.55;;
35444;SDS011;21562;49.476;6.086;2023-03-31T12:05:00;18.35;;;3.08;;
35444;SDS011;21562;49.476;6.086;2023-03-31T12:10:19;11.23;;;2.38;;
35444;SDS011;21562;49.476;6.086;2023-03-31T12:17:58;17.88;;;2.17;;
35444;SDS011;21562;49.476;6.086;2023-03-31T12:20:40;13.65;;;2.15;;
35444;SDS011;21562;49.476;6.086;2023-03-31T12:23:12;19.25;;;2.53;;
35444;SDS011;21562;49.476;6.086;2023-03-31T12:28:24;16.73;;;2.40;;
35444;SDS011;21562;49.476;6.086;2023-03-31T12:30:51;16.52;;;2.05;;
35444;SDS011;21562;49.476;6.086;2023-03-31T12:33:33;16.60;;;3.33;;
35444;SDS011;21562;49.476;6.086;2023-03-31T12:45:16;22.08;;;2.47;;
35444;SDS011;21562;49.476;6.086;2023-03-31T12:50:39;14.38;;;2.42;;
35444;SDS011;21562;49.476;6.086;2023-03-31T12:53:31;26.25;;;2.55;;
35444;SDS011;21562;49.476;6.086;2023-03-31T12:56:07;23.17;;;3.35;;
35444;SDS011;21562;49.476;6.086;2023-03-31T12:58:36;20.90;;;2.63;;
35444;SDS011;21562;49.476;6.086;2023-03-31T13:08:53;18.73;;;3.08;;
35444;SDS011;21562;49.476;6.086;2023-03-31T13:14:02;13.35;;;2.25;;
35444;SDS011;21562;49.476;6.086;2023-03-31T13:16:43;16.95;;;2.35;;
35444;SDS011;21562;49.476;6.086;2023-03-31T13:21:58;18.80;;;2.22;;
35444;SDS011;21562;49.476;6.086;2023-03-31T13:24:26;11.07;;;1.83;;
35444;SDS011;21562;49.476;6.086;2023-03-31T13:26:54;11.85;;;2.20;;
35444;SDS011;21562;49.476;6.086;2023-03-31T13:29:44;13.90;;;2.30;;
35444;SDS011;21562;49.476;6.086;2023-03-31T13:32:25;17.10;;;2.08;;
35444;SDS011;21562;49.476;6.086;2023-03-31T13:37:40;9.48;;;1.83;;
35444;SDS011;21562;49.476;6.086;2023-03-31T13:48:26;13.85;;;2.10;;
35444;SDS011;21562;49.476;6.086;2023-03-31T13:54:22;9.32;;;1.80;;
35444;SDS011;21562;49.476;6.086;2023-03-31T14:05:38;11.95;;;1.48;;
35444;SDS011;21562;49.476;6.086;2023-03-31T14:11:21;14.50;;;1.80;;
35444;SDS011;21562;49.476;6.086;2023-03-31T14:16:37;13.85;;;2.25;;
35444;SDS011;21562;49.476;6.086;2023-03-31T14:25:02;10.57;;;1.60;;
35444;SDS011;21562;49.476;6.086;2023-03-31T14:35:58;12.95;;;2.22;;
35444;SDS011;21562;49.476;6.086;2023-03-31T14:38:32;11.48;;;2.13;;
35444;SDS011;21562;49.476;6.086;2023-03-31T14:40:58;9.80;;;2.13;;
35444;SDS011;21562;49.476;6.086;2023-03-31T14:43:28;7.22;;;1.48;;
35444;SDS011;21562;49.476;6.086;2023-03-31T14:45:58;9.77;;;1.98;;
35444;SDS011;21562;49.476;6.086;2023-03-31T14:48:25;12.73;;;1.63;;
35444;SDS011;21562;49.476;6.086;2023-03-31T14:50:57;9.80;;;1.58;;
35444;SDS011;21562;49.476;6.086;2023-03-31T14:53:25;12.32;;;1.75;;
35444;SDS011;21562;49.476;6.086;2023-03-31T14:56:08;13.65;;;1.48;;
35444;SDS011;21562;49.476;6.086;2023-03-31T14:58:39;14.65;;;1.98;;
35444;SDS011;21562;49.476;6.086;2023-03-31T15:01:08;11.40;;;1.95;;
35444;SDS011;21562;49.476;6.086;2023-03-31T15:03:41;10.75;;;1.70;;
35444;SDS011;21562;49.476;6.086;2023-03-31T15:06:08;11.38;;;1.95;;
35444;SDS011;21562;49.476;6.086;2023-03-31T15:08:35;10.55;;;1.73;;
35444;SDS011;21562;49.476;6.086;2023-03-31T15:11:06;8.05;;;1.10;;
35444;SDS011;21562;49.476;6.086;2023-03-31T15:13:40;8.57;;;1.83;;
35444;SDS011;21562;49.476;6.086;2023-03-31T15:18:44;16.10;;;1.75;;
35444;SDS011;21562;49.476;6.086;2023-03-31T15:21:20;10.32;;;1.75;;
35444;SDS011;21562;49.476;6.086;2023-03-31T15:23:50;15.57;;;2.03;;
35444;SDS011;21562;49.476;6.086;2023-03-31T15:26:17;11.77;;;1.67;;
35444;SDS011;21562;49.476;6.086;2023-03-31T15:28:54;12.55;;;1.65;;
35444;SDS011;21562;49.476;6.086;2023-03-31T15:31:24;11.73;;;1.67;;
35444;SDS011;21562;49.476;6.086;2023-03-31T15:33:51;10.13;;;1.42;;
35444;SDS011;21562;49.476;6.086;2023-03-31T15:36:17;15.10;;;2.22;;
35444;SDS011;21562;49.476;6.086;2023-03-31T15:38:45;11.50;;;1.33;;
35444;SDS011;21562;49.476;6.086;2023-03-31T15:41:12;13.60;;;1.50;;
35444;SDS011;21562;49.476;6.086;2023-03-31T15:43:46;13.85;;;1.80;;
35444;SDS011;21562;49.476;6.086;2023-03-31T15:46:24;6.65;;;0.98;;
35444;SDS011;21562;49.476;6.086;2023-03-31T15:49:20;8.20;;;1.02;;
35444;SDS011;21562;49.476;6.086;2023-03-31T15:51:48;4.30;;;0.77;;
35444;SDS011;21562;49.476;6.086;2023-03-31T15:57:06;9.02;;;1.30;;
35444;SDS011;21562;49.476;6.086;2023-03-31T15:59:43;10.35;;;1.15;;
35444;SDS011;21562;49.476;6.086;2023-03-31T16:02:11;12.77;;;2.53;;
35444;SDS011;21562;49.476;6.086;2023-03-31T16:04:40;6.43;;;1.10;;
35444;SDS011;21562;49.476;6.086;2023-03-31T16:07:08;7.00;;;0.85;;
35444;SDS011;21562;49.476;6.086;2023-03-31T16:12:37;9.32;;;1.30;;
35444;SDS011;21562;49.476;6.086;2023-03-31T16:15:05;9.05;;;1.30;;
35444;SDS011;21562;49.476;6.086;2023-03-31T16:20:08;12.60;;;1.60;;
35444;SDS011;21562;49.476;6.086;2023-03-31T16:22:43;16.95;;;2.20;;
35444;SDS011;21562;49.476;6.086;2023-03-31T16:25:12;13.20;;;1.70;;
35444;SDS011;21562;49.476;6.086;2023-03-31T16:27:41;13.65;;;1.85;;
35444;SDS011;21562;49.476;6.086;2023-03-31T16:30:13;11.65;;;1.95;;
35444;SDS011;21562;49.476;6.086;2023-03-31T16:35:44;15.10;;;2.40;;
35444;SDS011;21562;49.476;6.086;2023-03-31T16:38:16;8.38;;;1.70;;
35444;SDS011;21562;49.476;6.086;2023-03-31T16:40:43;10.75;;;1.40;;
35444;SDS011;21562;49.476;6.086;2023-03-31T16:43:14;19.77;;;2.10;;
35444;SDS011;21562;49.476;6.086;2023-03-31T16:45:49;16.23;;;2.10;;
35444;SDS011;21562;49.476;6.086;2023-03-31T16:48:15;12.20;;;1.63;;
35444;SDS011;21562;49.476;6.086;2023-03-31T16:50:43;11.45;;;2.15;;
35444;SDS011;21562;49.476;6.086;2023-03-31T16:53:11;12.30;;;2.13;;
35444;SDS011;21562;49.476;6.086;2023-03-31T16:55:38;8.35;;;1.83;;
35444;SDS011;21562;49.476;6.086;2023-03-31T16:58:03;12.27;;;2.10;;
35444;SDS011;21562;49.476;6.086;2023-03-31T17:00:29;11.48;;;2.22;;
35444;SDS011;21562;49.476;6.086;2023-03-31T17:02:56;16.67;;;2.25;;
35444;SDS011;21562;49.476;6.086;2023-03-31T17:05:22;12.70;;;2.05;;
35444;SDS011;21562;49.476;6.086;2023-03-31T17:07:49;8.57;;;1.42;;
35444;SDS011;21562;49.476;6.086;2023-03-31T17:10:15;8.48;;;1.30;;
35444;SDS011;21562;49.476;6.086;2023-03-31T17:12:41;10.95;;;1.15;;
35444;SDS011;21562;49.476;6.086;2023-03-31T17:15:07;7.88;;;1.20;;
35444;SDS011;21562;49.476;6.086;2023-03-31T17:17:33;13.52;;;1.75;;
35444;SDS011;21562;49.476;6.086;2023-03-31T17:19:59;9.63;;;1.52;;
35444;SDS011;21562;49.476;6.086;2023-03-31T17:22:24;7.95;;;0.73;;
35444;SDS011;21562;49.476;6.086;2023-03-31T17:24:50;5.53;;;1.10;;
35444;SDS011;21562;49.476;6.086;2023-03-31T17:27:21;4.57;;;0.40;;
35444;SDS011;21562;49.476;6.086;2023-03-31T17:29:46;3.83;;;0.80;;
35444;SDS011;21562;49.476;6.086;2023-03-31T17:32:12;1.75;;;0.60;;
35444;SDS011;21562;49.476;6.086;2023-03-31T17:34:39;3.83;;;0.68;;
35444;SDS011;21562;49.476;6.086;2023-03-31T17:37:05;4.30;;;0.98;;
35444;SDS011;21562;49.476;6.086;2023-03-31T17:39:31;7.85;;;0.85;;
35444;SDS011;21562;49.476;6.086;2023-03-31T17:41:56;7.05;;;1.00;;
35444;SDS011;21562;49.476;6.086;2023-03-31T17:44:22;5.22;;;0.90;;
35444;SDS011;21562;49.476;6.086;2023-03-31T17:46:48;7.85;;;1.15;;
35444;SDS011;21562;49.476;6.086;2023-03-31T17:49:13;7.85;;;0.95;;
35444;SDS011;21562;49.476;6.086;2023-03-31T17:51:39;7.20;;;0.98;;
35444;SDS011;21562;49.476;6.086;2023-03-31T17:54:05;6.97;;;0.82;;
35444;SDS011;21562;49.476;6.086;2023-03-31T17:56:31;4.97;;;0.90;;
35444;SDS011;21562;49.476;6.086;2023-03-31T17:58:56;5.45;;;1.10;;
35444;SDS011;21562;49.476;6.086;2023-03-31T18:01:22;5.82;;;1.05;;
35444;SDS011;21562;49.476;6.086;2023-03-31T18:03:47;3.13;;;0.80;;
35444;SDS011;21562;49.476;6.086;2023-03-31T18:06:13;8.82;;;0.70;;
35444;SDS011;21562;49.476;6.086;2023-03-31T18:08:39;8.32;;;0.80;;
35444;SDS011;21562;49.476;6.086;2023-03-31T18:11:06;7.65;;;1.13;;
35444;SDS011;21562;49.476;6.086;2023-03-31T18:13:32;20.27;;;2.45;;